Time;durP1;ratioP1;P1;durP2;ratioP2;P2;SDS_P1;SDS_P2;PMS_P1;PMS_P2;Temp;Humidity;BMP_temperature;BMP_pressure;BME280_temperature;BME280_humidity;BME280_pressure;Samples;Min_cycle;Max_cycle;Signal;HPM_P1;HPM_P2
2022/04/22 00:01:46;;;;;;;20.13;4.07;;;14.50;81.80;;;;;;5132657;27;20127;-66
2022/04/22 00:04:13;;;;;;;9.63;3.83;;;14.50;81.90;;;;;;5132836;27;20106;-65
2022/04/22 00:06:38;;;;;;;13.30;4.55;;;14.50;81.90;;;;;;5123535;27;20032;-66
2022/04/22 00:09:04;;;;;;;8.55;4.00;;;14.40;82.00;;;;;;5130922;27;20494;-66
2022/04/22 00:11:30;;;;;;;9.55;4.28;;;14.40;82.10;;;;;;5132953;27;20112;-65
2022/04/22 00:13:57;;;;;;;9.27;4.00;;;14.40;82.60;;;;;;5132561;27;20370;-65
2022/04/22 00:16:27;;;;;;;14.93;4.32;;;14.30;82.70;;;;;;5132651;27;20035;-66
2022/04/22 00:18:54;;;;;;;11.07;5.13;;;14.30;82.80;;;;;;5119368;27;20026;-65
2022/04/22 00:21:20;;;;;;;13.52;4.65;;;14.30;82.90;;;;;;5132857;27;20035;-66
2022/04/22 00:23:48;;;;;;;10.40;3.83;;;14.30;82.90;;;;;;5131992;27;20027;-66
2022/04/22 00:26:13;;;;;;;10.73;4.97;;;14.20;83.00;;;;;;5132551;27;20032;-66
2022/04/22 00:28:39;;;;;;;14.52;4.47;;;14.20;83.10;;;;;;5133008;27;20034;-65
2022/04/22 00:31:04;;;;;;;13.90;4.32;;;14.10;83.10;;;;;;5131139;27;20043;-66
2022/04/22 00:33:30;;;;;;;16.50;4.60;;;14.20;83.20;;;;;;5116155;27;20230;-65
2022/04/22 00:35:56;;;;;;;10.60;4.20;;;14.10;83.20;;;;;;5131592;27;20046;-65
2022/04/22 00:38:22;;;;;;;10.10;4.20;;;14.10;83.40;;;;;;5118292;27;20027;-65
2022/04/22 00:40:47;;;;;;;10.40;4.63;;;14.10;83.70;;;;;;5124057;27;20029;-65
2022/04/22 00:43:16;;;;;;;9.55;4.15;;;14.00;83.70;;;;;;5130124;27;20023;-65
2022/04/22 00:45:43;;;;;;;7.43;4.03;;;14.00;83.90;;;;;;5132380;27;20042;-65
2022/04/22 00:48:08;;;;;;;10.70;4.35;;;13.90;84.00;;;;;;5132866;27;20394;-65
2022/04/22 00:50:35;;;;;;;12.32;4.60;;;13.90;84.20;;;;;;5130334;27;20031;-65
2022/04/22 00:53:00;;;;;;;8.63;4.13;;;13.90;84.30;;;;;;5132279;27;20031;-65
2022/04/22 00:55:28;;;;;;;8.88;4.47;;;13.80;84.40;;;;;;5132099;27;20076;-66
2022/04/22 00:57:54;;;;;;;10.52;4.18;;;13.80;84.50;;;;;;5131748;27;20066;-65
2022/04/22 01:00:20;;;;;;;11.20;4.57;;;13.80;84.60;;;;;;5132335;27;20062;-65
2022/04/22 01:02:46;;;;;;;12.25;4.85;;;13.80;84.60;;;;;;5132216;27;20035;-65
2022/04/22 01:10:40;;;;;;;8.25;4.22;;;13.70;84.60;;;;;;5118828;27;20467;-65
2022/04/22 01:13:07;;;;;;;11.75;4.07;;;13.70;84.70;;;;;;5126906;27;20117;-65
2022/04/22 01:15:34;;;;;;;7.53;3.38;;;13.70;84.80;;;;;;5128820;27;20034;-65
2022/04/22 01:18:00;;;;;;;15.95;4.88;;;13.60;85.00;;;;;;5126634;27;20042;-66
2022/04/22 01:20:27;;;;;;;9.93;3.83;;;13.60;85.00;;;;;;5131872;27;20019;-65
2022/04/22 01:22:53;;;;;;;11.25;5.72;;;13.60;85.10;;;;;;5131958;27;20492;-66
2022/04/22 01:25:19;;;;;;;7.68;3.90;;;13.50;85.30;;;;;;5126671;27;20027;-66
2022/04/22 01:27:50;;;;;;;7.90;4.68;;;13.50;86.00;;;;;;5131814;27;20035;-65
2022/04/22 01:30:22;;;;;;;11.52;4.32;;;13.40;85.50;;;;;;5131783;28;20043;-65
2022/04/22 01:32:52;;;;;;;11.48;4.25;;;13.40;85.50;;;;;;5131225;28;20042;-66
2022/04/22 01:35:19;;;;;;;12.80;4.35;;;13.30;85.50;;;;;;5132158;28;20439;-65
2022/04/22 01:37:47;;;;;;;8.60;3.75;;;13.30;85.60;;;;;;5126158;28;20483;-65
2022/04/22 01:40:14;;;;;;;8.77;4.18;;;13.30;85.70;;;;;;5117825;28;20027;-65
2022/04/22 01:42:40;;;;;;;13.15;4.60;;;13.30;85.60;;;;;;5118237;28;20035;-66
2022/04/22 01:45:07;;;;;;;10.75;4.47;;;13.30;85.70;;;;;;5127392;28;20551;-66
2022/04/22 01:47:33;;;;;;;16.55;4.13;;;13.30;85.70;;;;;;5130603;28;20046;-65
2022/04/22 01:49:59;;;;;;;11.77;4.30;;;13.20;85.80;;;;;;5131393;28;20047;-65
2022/04/22 01:52:25;;;;;;;11.68;4.22;;;13.20;86.00;;;;;;5131614;28;20096;-65
2022/04/22 01:54:53;;;;;;;9.05;4.00;;;13.10;86.00;;;;;;5131096;28;20136;-65
2022/04/22 01:57:20;;;;;;;9.98;4.03;;;13.10;86.20;;;;;;5131429;28;20564;-66
2022/04/22 01:59:46;;;;;;;8.88;4.20;;;13.10;86.30;;;;;;5131774;28;20118;-67
2022/04/22 02:02:13;;;;;;;12.65;4.18;;;13.00;86.30;;;;;;5124213;28;20055;-66
2022/04/22 02:04:39;;;;;;;9.38;4.20;;;13.00;86.50;;;;;;5130370;28;20351;-66
2022/04/22 02:07:05;;;;;;;14.93;4.28;;;13.00;86.60;;;;;;5130396;28;20023;-66
2022/04/22 02:09:31;;;;;;;9.63;3.53;;;12.90;86.60;;;;;;5129494;27;20035;-66
2022/04/22 02:11:56;;;;;;;8.07;3.60;;;12.90;86.70;;;;;;5134239;27;20046;-66
2022/04/22 02:14:23;;;;;;;12.85;3.97;;;12.80;86.80;;;;;;5134205;27;20023;-66
2022/04/22 02:16:48;;;;;;;10.60;3.80;;;12.80;86.90;;;;;;5133952;27;20066;-66
2022/04/22 02:19:14;;;;;;;7.18;3.90;;;12.80;86.90;;;;;;5133880;27;20054;-66
2022/04/22 02:21:41;;;;;;;11.68;4.05;;;12.80;86.90;;;;;;5133658;27;20131;-66
2022/04/22 02:24:10;;;;;;;6.25;3.33;;;12.80;87.00;;;;;;5131803;27;20079;-66
2022/04/22 02:29:21;;;;;;;10.10;4.13;;;12.70;87.00;;;;;;5133189;27;20043;-66
2022/04/22 02:31:48;;;;;;;10.68;3.85;;;12.70;87.00;;;;;;5134257;27;20106;-66
2022/04/22 02:34:13;;;;;;;12.75;4.28;;;12.60;87.00;;;;;;5133990;27;20501;-66
2022/04/22 02:36:41;;;;;;;8.88;3.67;;;12.60;87.00;;;;;;5132618;27;20028;-66
2022/04/22 02:39:07;;;;;;;11.15;4.05;;;12.60;87.10;;;;;;5131268;27;20031;-66
2022/04/22 02:47:01;;;;;;;8.57;4.28;;;12.50;87.00;;;;;;5133515;27;20104;-66
2022/04/22 02:49:27;;;;;;;10.23;4.35;;;12.50;87.00;;;;;;5133553;27;20379;-66
2022/04/22 02:51:52;;;;;;;9.48;3.55;;;12.50;87.00;;;;;;5132890;27;20030;-66
2022/04/22 02:54:18;;;;;;;10.50;4.43;;;12.50;87.50;;;;;;5134312;27;20023;-66
2022/04/22 02:56:44;;;;;;;11.43;4.65;;;12.50;86.80;;;;;;5134032;27;20046;-66
2022/04/22 02:59:10;;;;;;;11.80;4.03;;;12.50;86.70;;;;;;5133672;27;20023;-66
2022/04/22 03:01:37;;;;;;;11.30;3.75;;;12.50;86.60;;;;;;5132696;27;20066;-66
2022/04/22 03:04:04;;;;;;;11.00;3.72;;;12.50;86.50;;;;;;5132275;27;20047;-66
2022/04/22 03:06:29;;;;;;;7.63;3.72;;;12.50;86.30;;;;;;5133463;27;20042;-67
2022/04/22 03:08:55;;;;;;;4.78;2.85;;;12.50;86.30;;;;;;5133438;27;20031;-66
2022/04/22 03:11:21;;;;;;;9.63;3.75;;;12.50;86.10;;;;;;5132168;27;20118;-67
2022/04/22 03:13:51;;;;;;;8.00;3.38;;;12.50;86.10;;;;;;5133476;27;20024;-67
2022/04/22 03:16:23;;;;;;;5.70;2.83;;;12.50;86.10;;;;;;5134169;27;20046;-67
2022/04/22 03:18:49;;;;;;;8.75;2.55;;;12.50;86.00;;;;;;5133566;27;20106;-67
2022/04/22 03:21:15;;;;;;;7.40;3.25;;;12.50;85.80;;;;;;5133565;27;20503;-67
2022/04/22 03:23:40;;;;;;;7.22;3.40;;;12.50;85.60;;;;;;5133448;27;20075;-67
2022/04/22 03:26:07;;;;;;;7.55;3.72;;;12.50;85.60;;;;;;5133226;27;20030;-67
2022/04/22 03:28:32;;;;;;;8.02;3.53;;;12.40;85.40;;;;;;5133948;27;20037;-67
2022/04/22 03:30:58;;;;;;;5.63;3.42;;;12.50;85.50;;;;;;5133958;27;20043;-67
2022/04/22 03:33:24;;;;;;;9.73;2.50;;;12.40;85.40;;;;;;5133294;27;20015;-67
2022/04/22 03:35:50;;;;;;;10.23;3.30;;;12.40;85.40;;;;;;5133905;27;20063;-67
2022/04/22 03:38:20;;;;;;;7.57;3.28;;;12.30;85.40;;;;;;5133912;27;20031;-66
2022/04/22 03:40:51;;;;;;;9.23;3.10;;;12.40;85.40;;;;;;5120340;27;20027;-67
2022/04/22 03:43:17;;;;;;;8.73;3.85;;;12.30;85.40;;;;;;5133715;27;20035;-67
2022/04/22 03:45:44;;;;;;;6.30;3.13;;;12.40;85.50;;;;;;5133304;27;20035;-66
2022/04/22 03:48:10;;;;;;;9.75;2.95;;;12.30;85.40;;;;;;5132933;27;20039;-67
2022/04/22 03:50:36;;;;;;;10.80;3.50;;;12.30;85.40;;;;;;5120749;27;20550;-67
2022/04/22 03:53:03;;;;;;;8.77;4.00;;;12.30;85.30;;;;;;5133054;27;20112;-67
2022/04/22 03:55:29;;;;;;;8.80;3.35;;;12.30;85.20;;;;;;5133678;27;20018;-67
2022/04/22 03:58:13;;;;;;;9.82;3.67;;;12.30;85.40;;;;;;5133610;27;20039;-67
2022/04/22 04:00:50;;;;;;;;;;;12.30;85.40;;;;;;5120551;27;20145;-66
2022/04/22 04:03:21;;;;;;;6.75;2.97;;;12.20;85.60;;;;;;5133421;27;19911;-67
2022/04/22 04:05:49;;;;;;;11.93;3.22;;;12.20;85.50;;;;;;5133563;27;20401;-67
2022/04/22 04:08:16;;;;;;;5.38;2.90;;;12.10;86.30;;;;;;5132559;27;20053;-67
2022/04/22 04:16:07;;;;;;;6.03;2.75;;;12.00;86.00;;;;;;5127936;27;20061;-67
2022/04/22 04:18:35;;;;;;;6.18;3.20;;;11.90;86.00;;;;;;5124667;27;20035;-67
2022/04/22 04:23:47;;;;;;;4.95;2.78;;;11.90;86.00;;;;;;5133253;27;20027;-67
2022/04/22 04:26:15;;;;;;;6.22;3.50;;;11.80;85.90;;;;;;5133244;27;20039;-67
2022/04/22 04:28:42;;;;;;;7.05;2.90;;;11.90;86.00;;;;;;5132270;27;20046;-67
2022/04/22 04:31:08;;;;;;;6.97;2.70;;;11.80;85.90;;;;;;5132851;27;20043;-67
2022/04/22 04:33:36;;;;;;;4.10;2.58;;;11.80;85.90;;;;;;5132420;27;20027;-67
2022/04/22 04:36:02;;;;;;;6.85;3.00;;;11.80;85.90;;;;;;5131934;27;20035;-67
2022/04/22 04:38:28;;;;;;;6.35;3.60;;;11.80;85.80;;;;;;5132693;27;20015;-67
2022/04/22 04:40:54;;;;;;;5.55;2.63;;;11.70;85.70;;;;;;5132860;27;20374;-67
2022/04/22 04:43:23;;;;;;;4.97;2.50;;;11.70;85.80;;;;;;5131831;27;20027;-67
2022/04/22 04:45:50;;;;;;;8.25;3.08;;;11.70;85.80;;;;;;5132475;27;20040;-67
2022/04/22 04:48:16;;;;;;;6.63;2.78;;;11.70;85.90;;;;;;5132367;27;20035;-66
2022/04/22 04:50:43;;;;;;;3.63;2.20;;;11.70;86.20;;;;;;5131755;27;20061;-67
2022/04/22 04:53:10;;;;;;;5.93;2.70;;;11.60;86.30;;;;;;5132620;27;20031;-67
2022/04/22 04:55:35;;;;;;;4.80;2.53;;;11.70;86.60;;;;;;5132506;27;20035;-67
2022/04/22 04:58:01;;;;;;;3.97;2.70;;;11.60;86.70;;;;;;5131821;27;20493;-67
2022/04/22 05:00:27;;;;;;;7.10;2.60;;;11.60;86.90;;;;;;5132441;27;20476;-67
2022/04/22 05:02:54;;;;;;;5.50;2.47;;;11.50;87.00;;;;;;5119484;27;20363;-67
2022/04/22 05:05:20;;;;;;;7.47;2.22;;;11.50;87.00;;;;;;5128026;27;20043;-66
2022/04/22 05:07:56;;;;;;;4.43;2.40;;;11.50;87.10;;;;;;5132243;27;20072;-67
2022/04/22 05:10:22;;;;;;;4.07;2.40;;;11.50;87.10;;;;;;5118307;27;20138;-66
2022/04/22 05:12:49;;;;;;;4.07;2.40;;;11.40;87.20;;;;;;5130924;27;20073;-68
2022/04/22 05:15:17;;;;;;;6.38;2.30;;;11.40;87.50;;;;;;5130972;27;20042;-67
2022/04/22 05:17:43;;;;;;;4.10;2.30;;;11.40;87.70;;;;;;5130749;27;20114;-67
2022/04/22 05:20:14;;;;;;;9.95;3.22;;;11.40;87.90;;;;;;5130994;27;20031;-68
2022/04/22 05:22:40;;;;;;;4.60;2.20;;;11.30;88.00;;;;;;5126520;27;20029;-68
2022/04/22 05:25:07;;;;;;;7.10;2.70;;;11.30;88.30;;;;;;5130157;28;20104;-67
2022/04/22 05:27:34;;;;;;;5.47;2.40;;;11.30;88.30;;;;;;5131281;27;20034;-66
2022/04/22 05:32:48;;;;;;;4.60;2.20;;;11.30;88.40;;;;;;5129062;28;20084;-66
2022/04/22 05:35:20;;;;;;;4.85;2.20;;;11.30;88.30;;;;;;5128160;28;20054;-66
2022/04/22 05:37:51;;;;;;;6.53;2.63;;;11.30;88.40;;;;;;5128365;28;20042;-66
2022/04/22 05:40:22;;;;;;;6.68;2.05;;;11.30;88.50;;;;;;5128808;28;20027;-66
2022/04/22 05:42:50;;;;;;;5.13;2.10;;;11.30;88.60;;;;;;5131202;28;20016;-66
2022/04/22 05:45:16;;;;;;;6.18;2.97;;;11.30;88.80;;;;;;5132336;27;20121;-66
2022/04/22 05:47:42;;;;;;;5.38;2.33;;;11.30;88.80;;;;;;5135173;27;20424;-66
2022/04/22 05:50:10;;;;;;;3.17;1.75;;;11.30;88.90;;;;;;5133822;27;20070;-66
2022/04/22 05:52:37;;;;;;;3.53;2.10;;;11.30;89.10;;;;;;5130494;27;20073;-66
2022/04/22 05:55:08;;;;;;;5.35;2.25;;;11.30;89.20;;;;;;5133678;27;20122;-66
2022/04/22 05:57:34;;;;;;;3.78;2.10;;;11.30;89.30;;;;;;5133607;27;20027;-66
2022/04/22 06:00:04;;;;;;;4.47;2.08;;;11.30;89.40;;;;;;5133304;27;20114;-66
2022/04/22 06:02:41;;;;;;;7.32;2.10;;;11.30;89.50;;;;;;5133949;27;20498;-69
2022/04/22 06:05:08;;;;;;;12.73;2.13;;;11.30;89.50;;;;;;5130262;27;20031;-69
2022/04/22 06:07:34;;;;;;;6.68;2.58;;;11.30;89.60;;;;;;5132048;27;20068;-68
2022/04/22 06:12:44;;;;;;;4.45;2.42;;;11.30;89.70;;;;;;5133179;27;20105;-66
2022/04/22 06:15:10;;;;;;;9.55;2.15;;;11.30;89.80;;;;;;5131512;27;20106;-66
2022/04/22 06:17:35;;;;;;;5.05;2.30;;;11.30;90.00;;;;;;5133100;27;20079;-66
2022/04/22 06:20:02;;;;;;;7.63;2.55;;;11.30;90.00;;;;;;5133225;27;20041;-66
2022/04/22 06:22:28;;;;;;;4.78;1.90;;;11.30;90.00;;;;;;5132854;27;20067;-66
2022/04/22 06:24:54;;;;;;;8.90;2.53;;;11.30;90.10;;;;;;5133419;27;20066;-66
2022/04/22 06:27:34;;;;;;;8.05;2.28;;;11.30;90.10;;;;;;5133302;27;20030;-67
2022/04/22 06:30:10;;;;;;;7.40;2.20;;;11.30;90.40;;;;;;5132605;27;20042;-65
2022/04/22 06:32:37;;;;;;;7.45;2.65;;;11.40;90.20;;;;;;5133146;27;20388;-65
2022/04/22 06:35:04;;;;;;;4.43;2.10;;;11.40;90.10;;;;;;5132474;27;20055;-65
2022/04/22 06:37:34;;;;;;;4.22;2.08;;;11.40;90.10;;;;;;5133004;27;20034;-66
2022/04/22 06:45:47;;;;;;;6.32;2.00;;;11.40;90.10;;;;;;5131762;27;20046;-65
2022/04/22 06:48:30;;;;;;;5.35;2.38;;;11.50;90.20;;;;;;5131260;27;20028;-67
2022/04/22 06:50:57;;;;;;;6.97;2.53;;;11.50;90.30;;;;;;5127680;27;20038;-66
2022/04/22 06:53:23;;;;;;;9.50;3.00;;;11.50;90.30;;;;;;5132458;27;20027;-67
2022/04/22 06:55:50;;;;;;;5.93;2.08;;;11.50;90.30;;;;;;5133538;27;20126;-67
2022/04/22 06:58:17;;;;;;;5.15;2.15;;;11.60;90.30;;;;;;5134788;27;20047;-67
2022/04/22 07:00:44;;;;;;;9.73;2.50;;;11.60;90.20;;;;;;5134987;27;20054;-67
2022/04/22 07:03:11;;;;;;;6.35;1.98;;;11.60;90.20;;;;;;5133846;27;20063;-67
2022/04/22 07:05:39;;;;;;;3.72;2.03;;;11.70;90.10;;;;;;5134835;27;20114;-67
2022/04/22 07:08:11;;;;;;;5.15;2.45;;;11.70;90.20;;;;;;5132577;27;20073;-67
2022/04/22 07:10:37;;;;;;;8.30;2.40;;;11.70;90.30;;;;;;5122938;27;20485;-68
2022/04/22 07:13:04;;;;;;;5.18;2.00;;;11.80;90.30;;;;;;5133460;27;20053;-67
2022/04/22 07:15:30;;;;;;;6.18;2.38;;;11.80;90.10;;;;;;5133918;27;20432;-67
2022/04/22 07:17:56;;;;;;;6.22;2.30;;;11.80;90.10;;;;;;5133583;27;20027;-67
2022/04/22 07:20:23;;;;;;;6.10;2.42;;;11.80;90.20;;;;;;5133963;27;20390;-67
2022/04/22 07:22:49;;;;;;;4.90;2.28;;;11.80;90.20;;;;;;5134406;27;20049;-67
2022/04/22 07:25:15;;;;;;;4.57;2.53;;;11.90;90.10;;;;;;5128902;27;20058;-67
2022/04/22 07:27:44;;;;;;;6.63;2.67;;;11.90;90.10;;;;;;5134215;27;20027;-67
2022/04/22 07:30:13;;;;;;;11.10;2.50;;;11.90;90.00;;;;;;5134236;27;20477;-66
2022/04/22 07:32:39;;;;;;;5.45;2.47;;;11.90;90.20;;;;;;5133370;27;20050;-67
2022/04/22 07:35:08;;;;;;;5.13;2.40;;;12.00;90.20;;;;;;5134031;27;20528;-67
2022/04/22 07:37:35;;;;;;;8.23;2.42;;;12.00;90.30;;;;;;5133952;27;20147;-67
2022/04/22 07:40:02;;;;;;;8.25;2.50;;;12.10;90.30;;;;;;5133381;27;20466;-67
2022/04/22 07:42:29;;;;;;;4.43;2.38;;;12.10;90.30;;;;;;5133808;27;20067;-67
2022/04/22 07:47:44;;;;;;;4.57;2.40;;;12.10;90.30;;;;;;5133819;27;20517;-67
2022/04/22 07:50:10;;;;;;;4.47;2.38;;;12.20;90.20;;;;;;5133470;27;20571;-67
2022/04/22 07:52:36;;;;;;;8.00;2.40;;;12.20;90.30;;;;;;5132998;27;20509;-67
2022/04/22 07:55:03;;;;;;;8.05;2.88;;;12.30;90.20;;;;;;5120847;27;20028;-67
2022/04/22 07:57:30;;;;;;;12.73;2.63;;;12.30;90.10;;;;;;5133878;27;20141;-67
2022/04/22 07:59:57;;;;;;;4.32;2.25;;;12.40;90.20;;;;;;5130408;27;20486;-67
2022/04/22 08:02:23;;;;;;;6.22;3.00;;;12.40;90.00;;;;;;5123269;27;20031;-67
2022/04/22 08:04:49;;;;;;;6.47;2.75;;;12.40;90.00;;;;;;5133630;27;20050;-67
2022/04/22 08:07:16;;;;;;;5.78;2.25;;;12.40;89.70;;;;;;5132573;27;20035;-67
2022/04/22 08:09:42;;;;;;;6.88;2.83;;;12.50;89.70;;;;;;5131718;27;20042;-67
2022/04/22 08:12:08;;;;;;;5.43;2.60;;;12.50;90.00;;;;;;5133396;27;20015;-67
2022/04/22 08:14:34;;;;;;;6.10;2.42;;;12.60;90.00;;;;;;5132519;27;20038;-67
2022/04/22 08:17:01;;;;;;;4.38;1.90;;;12.60;90.10;;;;;;5133154;27;20027;-67
2022/04/22 08:19:26;;;;;;;5.85;2.28;;;12.60;90.00;;;;;;5133343;27;20088;-67
2022/04/22 08:21:52;;;;;;;7.35;2.72;;;12.60;90.10;;;;;;5132789;27;20030;-67
2022/04/22 08:24:18;;;;;;;4.63;2.42;;;12.70;90.20;;;;;;5133064;27;20095;-67
2022/04/22 08:26:44;;;;;;;5.85;2.67;;;12.70;90.10;;;;;;5133122;27;20073;-66
2022/04/22 08:29:10;;;;;;;5.25;2.88;;;12.70;90.00;;;;;;5132091;27;20066;-67
2022/04/22 08:31:36;;;;;;;5.10;2.40;;;12.80;90.00;;;;;;5133215;27;20050;-67
2022/04/22 08:34:02;;;;;;;5.75;2.42;;;12.80;90.00;;;;;;5132905;27;20413;-67
2022/04/22 08:36:29;;;;;;;5.35;2.30;;;12.90;90.30;;;;;;5132039;27;20568;-67
2022/04/22 08:38:56;;;;;;;5.25;2.33;;;12.90;90.30;;;;;;5114519;27;20035;-67
2022/04/22 08:41:22;;;;;;;4.32;1.85;;;12.90;90.30;;;;;;5119163;27;20032;-67
2022/04/22 08:43:51;;;;;;;5.53;2.53;;;12.90;90.20;;;;;;5125348;27;20077;-67
2022/04/22 08:51:59;;;;;;;5.13;2.58;;;13.00;90.20;;;;;;5132705;27;20019;-67
2022/04/22 08:54:26;;;;;;;5.00;2.45;;;13.10;89.70;;;;;;5130961;27;20477;-67
2022/04/22 08:56:52;;;;;;;7.00;2.50;;;13.20;89.80;;;;;;5120822;27;20489;-67
2022/04/22 08:59:18;;;;;;;11.80;2.83;;;13.20;90.00;;;;;;5132476;27;20035;-67
2022/04/22 09:01:44;;;;;;;5.95;2.20;;;13.30;89.80;;;;;;5132346;27;20429;-67
2022/04/22 09:04:10;;;;;;;5.97;2.00;;;13.30;90.00;;;;;;5131864;27;20789;-67
2022/04/22 09:06:37;;;;;;;8.68;2.80;;;13.30;89.50;;;;;;5132083;27;20103;-67
2022/04/22 09:09:06;;;;;;;5.88;2.25;;;13.40;89.50;;;;;;5132220;27;20555;-67
2022/04/22 09:11:37;;;;;;;4.55;2.20;;;13.40;89.40;;;;;;5131262;27;20035;-67
2022/04/22 09:14:03;;;;;;;6.55;2.53;;;13.50;89.50;;;;;;5132400;27;20051;-67
2022/04/22 09:16:29;;;;;;;3.67;2.13;;;13.50;89.40;;;;;;5131401;27;20482;-67
2022/04/22 09:19:00;;;;;;;3.78;1.85;;;13.50;89.90;;;;;;5118900;27;20024;-67
2022/04/22 09:21:27;;;;;;;4.35;2.25;;;13.50;90.00;;;;;;5131313;27;20039;-67
2022/04/22 09:23:53;;;;;;;4.97;2.50;;;13.60;89.70;;;;;;5129984;27;20043;-67
2022/04/22 09:26:23;;;;;;;5.38;2.50;;;13.70;89.80;;;;;;5131346;27;20106;-68
2022/04/22 09:28:59;;;;;;;7.70;3.13;;;13.70;90.00;;;;;;5130473;27;20033;-66
2022/04/22 09:31:27;;;;;;;9.27;2.22;;;13.80;90.10;;;;;;5126666;28;20494;-64
2022/04/22 09:33:53;;;;;;;6.57;3.00;;;13.80;90.20;;;;;;5129600;28;20076;-64
2022/04/22 09:45:08;;;;;;;12.25;2.03;;;14.00;90.10;;;;;;5126572;28;20110;-63
2022/04/22 09:47:35;;;;;;;6.13;2.35;;;14.00;90.30;;;;;;5129270;28;20051;-65
2022/04/22 09:50:08;;;;;;;5.30;2.08;;;14.00;90.20;;;;;;5120959;28;20031;-64
2022/04/22 09:52:38;;;;;;;5.90;2.30;;;14.00;90.30;;;;;;5128803;28;20574;-63
2022/04/22 09:55:08;;;;;;;4.97;2.35;;;14.00;90.10;;;;;;5131007;28;20031;-64
2022/04/22 09:57:55;;;;;;;6.57;2.65;;;14.10;90.20;;;;;;5130344;28;20809;-64
2022/04/22 10:00:26;;;;;;;8.07;2.72;;;14.10;89.90;;;;;;5129381;28;20066;-64
2022/04/22 10:02:53;;;;;;;9.38;2.88;;;14.20;90.00;;;;;;5130915;28;20031;-63
2022/04/22 10:05:21;;;;;;;4.28;2.53;;;14.20;90.10;;;;;;5130574;28;20035;-63
2022/04/22 10:07:55;;;;;;;4.70;1.88;;;14.20;90.10;;;;;;5130301;28;20027;-63
2022/04/22 10:10:27;;;;;;;8.45;2.85;;;14.20;90.20;;;;;;5128734;28;20043;-63
2022/04/22 10:12:57;;;;;;;5.03;2.03;;;14.30;89.60;;;;;;5129898;28;20543;-65
2022/04/22 10:15:27;;;;;;;6.57;2.75;;;14.30;89.60;;;;;;5123177;28;20047;-67
2022/04/22 10:17:53;;;;;;;5.72;2.70;;;14.40;89.60;;;;;;5131293;28;20472;-67
2022/04/22 10:20:20;;;;;;;3.53;1.60;;;14.40;89.10;;;;;;5130766;28;20072;-67
2022/04/22 10:22:49;;;;;;;3.03;1.90;;;14.50;89.70;;;;;;5131602;28;20035;-67
2022/04/22 10:25:16;;;;;;;3.38;1.67;;;14.50;89.80;;;;;;5129718;28;20126;-68
2022/04/22 10:27:43;;;;;;;4.88;1.85;;;14.60;90.10;;;;;;5129846;28;20026;-67
2022/04/22 10:30:13;;;;;;;10.23;2.53;;;14.60;90.10;;;;;;5130066;28;20065;-67
2022/04/22 10:32:41;;;;;;;12.07;2.90;;;14.60;89.80;;;;;;5133112;27;20023;-69
2022/04/22 10:35:07;;;;;;;4.32;2.78;;;14.60;90.00;;;;;;5133508;27;20431;-68
2022/04/22 10:37:37;;;;;;;5.18;2.50;;;14.60;89.90;;;;;;5134081;27;20030;-68
2022/04/22 10:40:04;;;;;;;5.63;2.55;;;14.70;89.60;;;;;;5134053;27;20035;-68
2022/04/22 10:42:32;;;;;;;6.32;2.47;;;14.70;89.80;;;;;;5133131;27;20054;-69
2022/04/22 10:47:52;;;;;;;;;;;14.80;89.30;;;;;;5132910;27;20085;-69
2022/04/22 10:50:37;;;;;;;4.88;2.50;;;14.80;89.40;;;;;;5132501;27;19916;-69
2022/04/22 10:53:04;;;;;;;4.50;2.22;;;14.90;88.90;;;;;;5131420;27;20118;-67
2022/04/22 10:55:31;;;;;;;5.53;2.78;;;15.00;88.60;;;;;;5131748;27;20019;-68
2022/04/22 10:58:21;;;;;;;6.10;2.65;;;15.00;88.00;;;;;;5131860;27;20023;-68
2022/04/22 11:00:48;;;;;;;4.38;2.08;;;15.10;87.80;;;;;;5128177;27;20409;-66
2022/04/22 11:03:24;;;;;;;5.38;2.95;;;15.20;88.40;;;;;;5125586;27;20032;-67
2022/04/22 11:05:57;;;;;;;5.63;2.85;;;15.20;87.70;;;;;;5133469;27;20047;-65
2022/04/22 11:08:28;;;;;;;7.28;3.20;;;15.30;87.40;;;;;;5132559;27;20039;-64
2022/04/22 11:10:54;;;;;;;5.55;2.80;;;15.30;87.00;;;;;;5130049;27;20046;-64
2022/04/22 11:13:38;;;;;;;6.38;2.17;;;15.40;87.40;;;;;;5131521;27;20416;-64
2022/04/22 11:16:33;;;;;;;6.05;3.58;;;15.40;87.10;;;;;;5130681;27;20446;-66
2022/04/22 11:19:19;;;;;;;8.32;3.22;;;15.40;87.00;;;;;;5130365;27;20113;-66
2022/04/22 11:21:55;;;;;;;7.45;3.25;;;15.50;87.70;;;;;;5128275;27;20027;-66
2022/04/22 11:24:31;;;;;;;7.47;2.67;;;15.50;86.80;;;;;;5129932;27;20381;-66
2022/04/22 11:27:08;;;;;;;5.88;3.15;;;15.50;87.30;;;;;;5131951;27;20393;-65
2022/04/22 11:29:35;;;;;;;7.15;2.83;;;15.60;87.00;;;;;;5127210;27;20055;-64
2022/04/22 11:32:11;;;;;;;5.55;3.08;;;15.60;87.30;;;;;;5130137;27;20436;-65
2022/04/22 11:35:03;;;;;;;8.90;3.05;;;15.70;87.30;;;;;;5131859;27;20031;-64
2022/04/22 11:37:30;;;;;;;6.43;3.78;;;15.70;87.00;;;;;;5129521;27;20035;-64
2022/04/22 11:39:55;;;;;;;8.30;3.25;;;15.70;86.00;;;;;;5131706;27;20116;-64
2022/04/22 11:42:22;;;;;;;5.05;3.08;;;15.70;86.20;;;;;;5131249;27;20487;-64
2022/04/22 11:45:04;;;;;;;6.97;2.75;;;15.80;86.30;;;;;;5130958;27;20027;-64
2022/04/22 11:47:30;;;;;;;7.97;3.30;;;15.80;85.50;;;;;;5129816;27;20118;-64
2022/04/22 11:49:56;;;;;;;6.20;3.08;;;15.90;85.10;;;;;;5131940;27;20119;-66
2022/04/22 11:52:22;;;;;;;4.75;3.05;;;16.00;84.80;;;;;;5131157;27;20063;-66
2022/04/22 11:54:49;;;;;;;7.20;3.55;;;16.00;85.20;;;;;;5131705;27;20068;-64
2022/04/22 11:57:19;;;;;;;6.22;3.05;;;16.00;85.00;;;;;;5130696;27;20027;-68
2022/04/22 12:05:32;;;;;;;4.13;2.70;;;16.10;85.50;;;;;;5130594;27;20034;-64
2022/04/22 12:05:37;;;;;;;5.88;3.22;;;16.10;85.30;;;;;;5129086;27;20038;-64
2022/04/22 12:08:10;;;;;;;5.07;2.47;;;16.20;85.70;;;;;;5131227;27;20023;-66
2022/04/22 12:10:36;;;;;;;6.60;3.35;;;16.20;86.00;;;;;;5131655;27;20050;-66
2022/04/22 12:13:03;;;;;;;7.30;3.70;;;16.20;84.60;;;;;;5131062;27;20546;-69
2022/04/22 12:15:29;;;;;;;6.47;3.03;;;16.30;84.20;;;;;;5131331;27;20084;-67
2022/04/22 12:17:56;;;;;;;9.30;2.95;;;16.30;85.00;;;;;;5105474;27;20075;-68
2022/04/22 12:20:25;;;;;;;7.85;3.33;;;16.40;85.00;;;;;;5132671;27;20467;-68
2022/04/22 12:22:52;;;;;;;7.78;3.45;;;16.40;85.10;;;;;;5132658;27;20037;-68
2022/04/22 12:25:20;;;;;;;5.97;3.92;;;16.40;85.40;;;;;;5132109;27;20031;-68
2022/04/22 12:28:08;;;;;;;5.90;3.50;;;16.40;84.00;;;;;;5131490;27;20027;-68
2022/04/22 12:30:39;;;;;;;9.07;3.80;;;16.50;84.50;;;;;;5128538;27;20043;-68
2022/04/22 12:33:06;;;;;;;1.65;1.13;;;16.50;84.50;;;;;;5121698;27;20030;-67
2022/04/22 12:35:32;;;;;;;6.38;3.97;;;16.60;85.80;;;;;;5129223;27;20092;-66
2022/04/22 12:38:03;;;;;;;6.65;4.25;;;16.60;85.20;;;;;;5126520;27;20079;-64
2022/04/22 12:40:44;;;;;;;6.43;2.65;;;16.70;84.40;;;;;;5129795;27;20042;-64
2022/04/22 12:43:27;;;;;;;2.67;1.98;;;16.70;84.90;;;;;;5130699;27;20038;-63
2022/04/22 12:54:32;;;;;;;9.70;3.83;;;17.00;84.40;;;;;;5128496;27;20025;-64
2022/04/22 12:57:00;;;;;;;10.85;4.05;;;17.00;83.60;;;;;;5129124;27;20557;-64
2022/04/22 13:00:17;;;;;;;8.18;3.80;;;17.00;83.90;;;;;;5128495;27;20080;-64
2022/04/22 13:02:44;;;;;;;5.43;3.55;;;17.00;84.50;;;;;;5042103;28;20057;-64
2022/04/22 13:05:27;;;;;;;7.72;3.40;;;17.00;83.90;;;;;;5043855;28;20107;-64
2022/04/22 13:07:52;;;;;;;6.13;3.30;;;17.10;83.80;;;;;;5097643;27;20240;-65
2022/04/22 13:10:22;;;;;;;6.70;3.63;;;17.00;83.70;;;;;;5121689;27;20126;-65
2022/04/22 13:12:49;;;;;;;11.50;3.92;;;17.10;83.80;;;;;;5126406;27;20046;-65
2022/04/22 13:15:19;;;;;;;6.63;3.72;;;17.10;83.60;;;;;;5126274;27;20621;-65
2022/04/22 13:17:47;;;;;;;5.65;3.33;;;17.20;83.50;;;;;;5123318;27;20051;-65
2022/04/22 13:20:15;;;;;;;6.72;3.72;;;17.20;83.70;;;;;;5127404;27;20094;-66
2022/04/22 13:22:41;;;;;;;7.00;3.50;;;17.20;83.20;;;;;;5125953;27;20554;-66
2022/04/22 13:25:11;;;;;;;5.68;3.72;;;17.30;83.20;;;;;;5129112;27;20114;-65
2022/04/22 13:27:39;;;;;;;9.82;4.07;;;17.30;83.20;;;;;;5128330;27;20027;-66
2022/04/22 13:30:06;;;;;;;8.65;3.88;;;17.40;83.10;;;;;;5127893;27;20073;-66
2022/04/22 13:32:32;;;;;;;10.18;4.53;;;17.40;83.00;;;;;;5126692;27;20394;-66
2022/04/22 13:34:57;;;;;;;8.55;3.75;;;17.40;82.50;;;;;;5127819;28;20049;-66
2022/04/22 13:37:23;;;;;;;7.93;3.90;;;17.40;83.80;;;;;;5126110;28;20023;-66
2022/04/22 13:39:49;;;;;;;12.50;4.00;;;17.40;83.90;;;;;;5127649;28;20031;-66
2022/04/22 13:42:21;;;;;;;11.95;4.15;;;17.50;84.40;;;;;;5109849;28;20051;-67
2022/04/22 13:53:04;;;;;;;10.60;2.92;;;17.50;85.10;;;;;;5115524;28;20713;-66
2022/04/22 13:55:30;;;;;;;8.90;3.75;;;17.50;84.70;;;;;;5123124;28;20247;-66
2022/04/22 13:57:56;;;;;;;11.77;4.57;;;17.50;83.30;;;;;;5126945;28;20497;-66
2022/04/22 14:00:23;;;;;;;5.70;2.47;;;17.60;82.90;;;;;;5126534;28;20042;-66
2022/04/22 14:02:49;;;;;;;11.32;3.65;;;17.70;84.30;;;;;;5124570;28;20099;-66
2022/04/22 14:05:21;;;;;;;9.38;3.85;;;17.80;83.70;;;;;;5125488;27;20117;-66